Time;durP1;ratioP1;P1;durP2;ratioP2;P2;SDS_P1;SDS_P2;PMS_P1;PMS_P2;Temp;Humidity;BMP_temperature;BMP_pressure;BME280_temperature;BME280_humidity;BME280_pressure;Samples;Min_cycle;Max_cycle;Signal;HPM_P1;HPM_P2
2023/03/24 00:02:20;;;;;;;3.33;1.50;;;15.30;99.90;;;;;;5047590;28;20299;-32
2023/03/24 00:04:51;;;;;;;3.43;1.93;;;15.30;99.90;;;;;;5047195;28;20219;-32
2023/03/24 00:07:22;;;;;;;2.07;1.60;;;15.30;99.90;;;;;;5062254;28;20869;-32
2023/03/24 00:09:53;;;;;;;2.20;1.50;;;15.30;99.90;;;;;;5047099;28;20603;-32
2023/03/24 00:12:20;;;;;;;3.17;1.43;;;15.30;99.90;;;;;;5062266;28;20204;-32
2023/03/24 00:14:53;;;;;;;3.17;1.70;;;15.30;99.90;;;;;;5062171;28;20270;-32
2023/03/24 00:17:24;;;;;;;3.67;1.80;;;15.30;99.90;;;;;;5045531;28;20197;-32
2023/03/24 00:19:56;;;;;;;3.33;1.40;;;15.30;99.90;;;;;;5061704;28;20250;-32
2023/03/24 00:22:27;;;;;;;3.08;1.60;;;15.30;99.90;;;;;;5046548;28;20200;-32
2023/03/24 00:24:54;;;;;;;4.70;1.65;;;15.30;99.90;;;;;;5046015;28;20723;-32
2023/03/24 00:27:21;;;;;;;3.17;1.70;;;15.30;99.90;;;;;;5046781;28;20212;-32
2023/03/24 00:29:52;;;;;;;2.13;1.40;;;15.40;99.90;;;;;;5062163;28;20262;-32
2023/03/24 00:32:21;;;;;;;3.00;1.90;;;15.40;99.90;;;;;;5047230;28;20261;-32
2023/03/24 00:34:53;;;;;;;5.32;1.50;;;15.40;99.90;;;;;;5062320;28;20315;-32
2023/03/24 00:37:22;;;;;;;3.93;2.10;;;15.40;99.90;;;;;;5045758;28;20578;-32
2023/03/24 00:39:54;;;;;;;4.32;1.60;;;15.40;99.90;;;;;;5046977;28;20287;-32
2023/03/24 00:42:24;;;;;;;1.93;1.40;;;15.30;99.90;;;;;;5061727;28;20745;-32
2023/03/24 00:44:52;;;;;;;2.13;1.60;;;15.30;99.90;;;;;;5047213;28;20859;-32
2023/03/24 00:47:24;;;;;;;3.43;1.70;;;15.40;99.90;;;;;;5045843;28;20307;-32
2023/03/24 00:49:53;;;;;;;2.07;1.53;;;15.40;99.90;;;;;;5061308;28;20196;-32
2023/03/24 00:52:24;;;;;;;3.90;1.67;;;15.40;99.90;;;;;;5047224;28;20601;-32
2023/03/24 00:54:57;;;;;;;4.35;1.73;;;15.40;99.90;;;;;;5046695;28;20744;-32
2023/03/24 00:57:33;;;;;;;3.57;1.80;;;15.40;99.90;;;;;;5046762;28;20573;-32
2023/03/24 01:00:13;;;;;;;3.23;1.93;;;15.40;99.90;;;;;;5046780;28;20212;-32
2023/03/24 01:02:45;;;;;;;2.43;1.77;;;15.30;99.90;;;;;;5046627;28;20212;-32
2023/03/24 01:05:13;;;;;;;3.07;1.80;;;15.30;99.90;;;;;;5046349;28;20212;-32
2023/03/24 01:07:50;;;;;;;2.83;1.80;;;15.40;99.90;;;;;;5045960;28;20620;-32
2023/03/24 01:10:20;;;;;;;3.43;1.80;;;15.40;99.90;;;;;;5046575;28;20663;-32
2023/03/24 01:12:51;;;;;;;2.17;1.77;;;15.40;99.90;;;;;;5045027;28;20331;-32
2023/03/24 01:15:23;;;;;;;3.37;1.80;;;15.40;99.90;;;;;;5061302;28;20216;-32
2023/03/24 01:17:53;;;;;;;1.87;1.47;;;15.50;99.90;;;;;;5044823;28;20584;-32
2023/03/24 01:20:23;;;;;;;5.70;1.97;;;15.50;99.90;;;;;;5046840;28;20228;-33
2023/03/24 01:22:50;;;;;;;2.20;1.80;;;15.40;99.90;;;;;;5046368;28;20258;-32
2023/03/24 01:25:20;;;;;;;5.40;1.60;;;15.50;99.90;;;;;;5046422;28;20200;-32
2023/03/24 01:27:50;;;;;;;2.10;1.80;;;15.50;99.90;;;;;;5061292;28;20212;-32
2023/03/24 01:30:25;;;;;;;2.77;1.77;;;15.40;99.90;;;;;;5046535;28;20287;-32
2023/03/24 01:32:57;;;;;;;3.90;1.67;;;15.50;99.90;;;;;;5044756;28;20258;-32
2023/03/24 01:35:25;;;;;;;3.03;1.77;;;15.50;99.90;;;;;;5046185;28;20228;-32
2023/03/24 01:37:58;;;;;;;4.03;1.73;;;15.50;99.90;;;;;;5029306;28;20211;-32
2023/03/24 01:40:29;;;;;;;3.00;1.93;;;15.50;99.90;;;;;;5061539;28;20236;-32
2023/03/24 01:42:57;;;;;;;2.23;1.73;;;15.50;99.90;;;;;;5044649;28;20207;-32
2023/03/24 01:45:56;;;;;;;2.67;1.60;;;15.50;99.90;;;;;;5061256;28;20299;-32
2023/03/24 01:48:45;;;;;;;2.27;1.97;;;15.50;99.90;;;;;;5044907;28;20212;-32
2023/03/24 01:51:18;;;;;;;1.80;1.50;;;15.50;99.90;;;;;;5061346;28;20253;-32
2023/03/24 01:53:54;;;;;;;3.23;1.80;;;15.50;99.90;;;;;;5046314;28;20774;-32
2023/03/24 01:56:23;;;;;;;2.80;1.70;;;15.60;99.90;;;;;;5061318;28;20294;-32
2023/03/24 01:58:58;;;;;;;3.50;2.10;;;15.60;99.90;;;;;;5059763;28;20563;-32
2023/03/24 02:01:29;;;;;;;3.40;1.90;;;15.60;99.90;;;;;;5044075;28;20200;-32
2023/03/24 02:04:03;;;;;;;2.50;1.83;;;15.70;99.90;;;;;;5044784;28;20552;-32
2023/03/24 02:06:39;;;;;;;2.90;1.57;;;15.60;99.90;;;;;;5045859;28;20239;-32
2023/03/24 02:09:14;;;;;;;4.78;1.90;;;15.60;99.90;;;;;;5044456;28;20306;-32
2023/03/24 02:11:42;;;;;;;3.70;1.90;;;15.60;99.90;;;;;;5045793;28;20202;-33
2023/03/24 02:14:12;;;;;;;2.60;1.53;;;15.70;99.90;;;;;;5044257;28;20635;-32
2023/03/24 02:16:52;;;;;;;2.13;1.50;;;15.70;99.90;;;;;;5044082;28;20319;-32
2023/03/24 02:19:56;;;;;;;2.70;1.67;;;15.70;99.90;;;;;;5045570;28;20210;-32
2023/03/24 02:22:56;;;;;;;2.50;1.90;;;15.70;99.90;;;;;;5060672;28;20303;-32
2023/03/24 02:25:42;;;;;;;3.17;2.13;;;15.70;99.90;;;;;;5045905;28;20220;-32
2023/03/24 02:28:17;;;;;;;1.77;1.60;;;15.70;99.90;;;;;;5060614;28;20216;-32
2023/03/24 02:31:10;;;;;;;4.13;2.00;;;15.70;99.90;;;;;;5045692;28;20273;-32
2023/03/24 02:34:30;;;;;;;3.67;1.83;;;15.70;99.90;;;;;;5059263;28;20526;-32
2023/03/24 02:37:20;;;;;;;2.13;1.57;;;15.70;99.90;;;;;;5020909;28;20208;-32
2023/03/24 02:40:28;;;;;;;2.33;1.60;;;15.60;99.90;;;;;;5045690;28;20228;-32
2023/03/24 02:43:10;;;;;;;2.30;1.70;;;15.60;99.90;;;;;;4967676;28;20202;-32
2023/03/24 02:45:52;;;;;;;2.23;1.70;;;15.60;99.90;;;;;;4987032;28;20202;-32
2023/03/24 02:48:30;;;;;;;1.07;0.90;;;15.60;99.90;;;;;;5024445;28;20212;-32
2023/03/24 02:51:04;;;;;;;1.87;1.10;;;15.60;99.90;;;;;;5049725;28;20718;-32
2023/03/24 02:53:59;;;;;;;1.30;0.93;;;15.60;99.90;;;;;;5048927;28;20294;-32
2023/03/24 02:56:28;;;;;;;1.20;0.80;;;15.50;99.90;;;;;;5049269;28;20766;-32
2023/03/24 02:59:10;;;;;;;3.73;0.90;;;15.40;99.90;;;;;;5049447;28;20613;-32
2023/03/24 03:02:07;;;;;;;5.17;1.07;;;15.40;99.90;;;;;;5064277;28;20768;-32
2023/03/24 03:04:45;;;;;;;5.40;0.80;;;15.30;99.90;;;;;;5049039;28;20219;-32
2023/03/24 03:07:15;;;;;;;2.43;0.70;;;15.20;99.90;;;;;;5047608;28;20765;-31
2023/03/24 03:09:50;;;;;;;1.70;0.90;;;15.10;99.90;;;;;;5048899;28;20216;-32
2023/03/24 03:12:26;;;;;;;2.03;0.80;;;14.90;99.90;;;;;;5048840;28;20553;-31
2023/03/24 03:15:05;;;;;;;2.03;0.63;;;14.90;99.90;;;;;;5048613;28;20222;-32
2023/03/24 03:17:37;;;;;;;3.43;0.90;;;14.80;99.90;;;;;;5048835;28;20196;-31
2023/03/24 03:20:19;;;;;;;2.63;0.60;;;14.80;99.90;;;;;;5046976;28;20196;-31
2023/03/24 03:23:02;;;;;;;2.57;0.83;;;14.70;99.90;;;;;;5048085;28;20746;-31
2023/03/24 03:25:35;;;;;;;1.43;0.70;;;14.60;99.90;;;;;;5048725;28;20220;-31
2023/03/24 03:28:07;;;;;;;3.87;1.07;;;14.50;99.90;;;;;;5048646;28;20274;-32
2023/03/24 03:30:42;;;;;;;3.60;1.13;;;14.40;99.90;;;;;;5048737;28;20815;-31
2023/03/24 03:33:24;;;;;;;2.90;0.97;;;14.40;99.90;;;;;;5046782;28;20480;-32
2023/03/24 03:35:59;;;;;;;1.80;0.70;;;14.40;99.90;;;;;;5048589;28;20322;-32
2023/03/24 03:38:45;;;;;;;3.60;0.90;;;14.30;99.90;;;;;;5048556;28;20196;-32
2023/03/24 03:41:14;;;;;;;3.00;1.00;;;14.30;99.90;;;;;;5048347;28;20192;-32
2023/03/24 03:43:41;;;;;;;3.57;0.77;;;14.20;99.90;;;;;;5046825;28;20226;-32
2023/03/24 03:46:09;;;;;;;3.67;1.10;;;14.20;99.90;;;;;;5063564;28;20599;-32
2023/03/24 03:48:38;;;;;;;3.13;0.93;;;14.10;99.90;;;;;;5063474;28;20204;-31
2023/03/24 03:51:08;;;;;;;1.40;0.60;;;14.10;99.90;;;;;;5048262;28;20675;-31
2023/03/24 03:53:53;;;;;;;3.33;0.97;;;14.10;99.90;;;;;;5062502;28;20608;-32
2023/03/24 03:56:23;;;;;;;2.97;0.83;;;14.00;99.90;;;;;;5046916;28;20251;-32
2023/03/24 03:58:53;;;;;;;6.37;1.10;;;14.00;99.90;;;;;;5047848;28;20644;-32
2023/03/24 04:01:24;;;;;;;4.67;1.10;;;13.90;99.90;;;;;;5063085;28;20206;-32
2023/03/24 04:04:06;;;;;;;4.57;1.00;;;13.90;99.90;;;;;;5048045;28;20200;-32
2023/03/24 04:06:56;;;;;;;7.00;1.40;;;13.80;99.90;;;;;;5062926;28;20196;-31
2023/03/24 04:09:58;;;;;;;3.50;1.20;;;13.80;99.90;;;;;;5047797;28;20231;-31
2023/03/24 04:12:40;;;;;;;5.13;1.50;;;13.70;99.90;;;;;;5047203;28;20584;-32
2023/03/24 04:15:26;;;;;;;6.43;1.40;;;13.60;99.90;;;;;;5047680;28;20601;-31
2023/03/24 04:18:13;;;;;;;6.73;1.33;;;13.60;99.90;;;;;;5062309;28;20307;-32
2023/03/24 04:20:47;;;;;;;5.60;1.23;;;13.60;99.90;;;;;;5047578;28;20295;-32
2023/03/24 04:23:49;;;;;;;5.07;1.40;;;13.60;99.90;;;;;;5047944;28;21040;-32
2023/03/24 04:26:33;;;;;;;8.60;1.60;;;13.50;99.90;;;;;;5009592;28;20589;-32
2023/03/24 04:29:21;;;;;;;7.07;1.73;;;13.60;99.90;;;;;;5047072;28;20246;-31
2023/03/24 04:32:29;;;;;;;6.30;1.30;;;13.50;99.90;;;;;;5061867;28;20288;-32
2023/03/24 04:35:08;;;;;;;7.03;1.67;;;13.50;99.90;;;;;;5045706;28;20235;-31
2023/03/24 04:37:39;;;;;;;7.37;1.43;;;13.50;99.90;;;;;;5046939;28;20273;-31
2023/03/24 04:40:16;;;;;;;6.17;2.00;;;13.50;99.90;;;;;;5062243;28;20206;-31
2023/03/24 04:42:51;;;;;;;6.57;1.50;;;13.50;99.90;;;;;;5061918;28;20204;-31
2023/03/24 04:45:24;;;;;;;6.13;1.70;;;13.50;99.90;;;;;;5047077;28;20702;-32
2023/03/24 04:47:58;;;;;;;5.57;2.03;;;13.50;99.90;;;;;;5045730;28;20714;-32
2023/03/24 04:50:31;;;;;;;9.07;2.13;;;13.40;99.90;;;;;;5046951;28;20226;-32
2023/03/24 04:52:59;;;;;;;7.97;1.80;;;13.40;99.90;;;;;;5047069;28;20208;-32
2023/03/24 04:55:36;;;;;;;5.43;1.70;;;13.40;99.90;;;;;;5047650;28;20765;-32
2023/03/24 04:58:06;;;;;;;7.30;1.70;;;13.40;99.90;;;;;;5046904;28;20218;-32
2023/03/24 05:00:35;;;;;;;9.87;2.27;;;13.40;99.90;;;;;;5045826;28;20279;-32
2023/03/24 05:03:03;;;;;;;7.60;2.47;;;13.30;99.90;;;;;;5046685;28;20461;-32
2023/03/24 05:05:37;;;;;;;9.50;2.60;;;13.40;99.90;;;;;;5062238;28;20263;-32
2023/03/24 05:08:07;;;;;;;9.37;2.70;;;13.40;99.90;;;;;;5046344;28;20203;-32
2023/03/24 05:10:36;;;;;;;11.47;2.90;;;13.30;99.90;;;;;;5061422;28;20234;-32
2023/03/24 05:13:05;;;;;;;10.93;2.77;;;13.40;99.90;;;;;;5046607;28;20216;-32
2023/03/24 05:15:32;;;;;;;9.57;2.63;;;13.40;99.90;;;;;;5046817;28;20698;-31
2023/03/24 05:18:02;;;;;;;9.37;3.30;;;13.30;99.90;;;;;;5061682;28;20200;-32
2023/03/24 05:20:37;;;;;;;7.07;2.77;;;13.30;99.90;;;;;;5061091;28;20291;-32
2023/03/24 05:23:05;;;;;;;8.33;2.80;;;13.30;99.90;;;;;;5045192;28;20441;-32
2023/03/24 05:25:32;;;;;;;9.47;2.93;;;13.20;99.90;;;;;;5045246;28;20214;-32
2023/03/24 05:27:59;;;;;;;11.37;2.90;;;13.20;99.90;;;;;;5046124;28;20287;-32
2023/03/24 05:30:27;;;;;;;9.57;2.80;;;13.20;99.90;;;;;;5046592;28;20686;-32
2023/03/24 05:32:57;;;;;;;7.13;2.57;;;13.20;99.90;;;;;;5061286;28;20223;-32
2023/03/24 05:35:29;;;;;;;7.27;2.57;;;13.20;99.90;;;;;;5046497;28;20600;-32
2023/03/24 05:37:56;;;;;;;7.43;2.73;;;13.10;99.90;;;;;;5044547;28;20208;-32
2023/03/24 05:40:26;;;;;;;9.90;2.73;;;13.10;99.90;;;;;;5044887;28;20197;-32
2023/03/24 05:42:53;;;;;;;9.10;2.87;;;13.10;99.90;;;;;;5046458;28;20200;-32
2023/03/24 05:45:20;;;;;;;11.07;2.83;;;13.00;99.90;;;;;;5045083;28;20787;-32
2023/03/24 05:47:48;;;;;;;7.97;2.50;;;13.00;99.90;;;;;;5046304;28;20219;-32
2023/03/24 05:50:15;;;;;;;8.97;2.50;;;13.00;99.90;;;;;;5045999;28;20215;-33
2023/03/24 05:52:47;;;;;;;7.80;2.30;;;12.90;99.90;;;;;;5046081;28;20196;-32
2023/03/24 05:55:14;;;;;;;12.87;2.90;;;12.90;99.90;;;;;;5061616;28;20250;-32
2023/03/24 05:57:42;;;;;;;9.27;2.50;;;12.90;99.90;;;;;;5045872;28;20196;-32
2023/03/24 06:00:16;;;;;;;8.80;2.03;;;12.90;99.90;;;;;;5061258;28;20320;-32
2023/03/24 06:02:44;;;;;;;8.80;2.07;;;12.90;99.90;;;;;;5060296;28;20703;-32
2023/03/24 06:05:12;;;;;;;6.50;2.20;;;12.80;99.90;;;;;;5045870;28;20204;-32
2023/03/24 06:07:45;;;;;;;10.23;2.07;;;12.80;99.90;;;;;;5044243;28;20207;-32
2023/03/24 06:10:19;;;;;;;8.27;1.83;;;12.80;99.90;;;;;;5046483;28;20597;-32
2023/03/24 06:12:48;;;;;;;10.03;2.20;;;12.80;99.90;;;;;;5046352;28;20208;-32
2023/03/24 06:15:16;;;;;;;7.00;2.00;;;12.80;99.90;;;;;;5045538;28;20205;-32
2023/03/24 06:17:45;;;;;;;9.97;2.23;;;12.80;99.90;;;;;;5045958;28;20201;-32
2023/03/24 06:20:17;;;;;;;17.07;3.10;;;12.80;99.90;;;;;;5048321;28;20208;-32
2023/03/24 06:22:46;;;;;;;11.70;3.00;;;12.80;99.90;;;;;;5050236;28;20683;-32
2023/03/24 06:25:19;;;;;;;22.33;3.27;;;12.80;99.90;;;;;;5048198;28;20304;-32
2023/03/24 06:27:48;;;;;;;15.67;2.80;;;12.70;99.90;;;;;;5064424;28;20206;-34
2023/03/24 06:30:21;;;;;;;16.30;3.70;;;12.70;99.90;;;;;;5049550;28;20208;-32
2023/03/24 06:32:52;;;;;;;12.40;2.83;;;12.70;99.90;;;;;;5049629;28;20196;-32
2023/03/24 06:35:25;;;;;;;17.80;3.17;;;12.70;99.90;;;;;;5049283;28;20287;-32
2023/03/24 06:37:56;;;;;;;16.43;4.03;;;12.70;99.90;;;;;;5063360;28;20204;-32
2023/03/24 06:40:24;;;;;;;14.27;2.80;;;12.80;99.90;;;;;;5047448;28;20208;-32
2023/03/24 06:42:53;;;;;;;12.07;2.13;;;12.70;99.90;;;;;;5048861;28;20192;-32
2023/03/24 06:45:20;;;;;;;13.73;2.83;;;12.80;99.90;;;;;;5047455;28;20200;-32
2023/03/24 06:47:56;;;;;;;14.63;3.33;;;12.80;99.90;;;;;;5063424;28;20208;-32
2023/03/24 06:50:25;;;;;;;16.53;3.63;;;12.80;99.90;;;;;;5064024;28;20691;-32
2023/03/24 06:52:58;;;;;;;12.47;2.77;;;12.80;99.90;;;;;;5063165;28;20197;-32
2023/03/24 06:55:31;;;;;;;13.17;2.43;;;12.80;99.90;;;;;;5048870;28;20267;-32
2023/03/24 06:58:01;;;;;;;8.63;2.23;;;12.90;99.90;;;;;;5063699;28;20196;-32
2023/03/24 07:00:28;;;;;;;11.40;2.33;;;12.90;99.90;;;;;;5048589;28;20299;-32
2023/03/24 07:02:58;;;;;;;10.30;2.40;;;12.90;99.90;;;;;;5047492;28;20626;-32
2023/03/24 07:05:26;;;;;;;12.30;2.07;;;12.90;99.90;;;;;;5049282;28;20311;-33
2023/03/24 07:07:58;;;;;;;10.83;2.80;;;12.90;99.90;;;;;;5048972;28;20192;-32
2023/03/24 07:10:30;;;;;;;13.10;2.70;;;12.80;99.90;;;;;;5047349;28;20196;-32
2023/03/24 07:12:58;;;;;;;11.83;2.63;;;12.90;99.90;;;;;;5047829;28;20637;-32
2023/03/24 07:15:29;;;;;;;9.37;2.10;;;12.90;99.90;;;;;;5048790;28;20328;-32
2023/03/24 07:17:56;;;;;;;12.97;2.60;;;12.90;99.90;;;;;;5047345;28;20291;-32
2023/03/24 07:20:24;;;;;;;11.50;2.67;;;12.80;99.90;;;;;;5048606;28;20293;-32
2023/03/24 07:22:58;;;;;;;9.23;2.33;;;12.90;99.90;;;;;;5048423;28;20307;-32
2023/03/24 07:25:29;;;;;;;16.67;2.97;;;12.90;99.90;;;;;;5047367;28;20204;-32
2023/03/24 07:27:57;;;;;;;16.90;2.57;;;12.90;99.90;;;;;;5048178;28;20686;-32
2023/03/24 07:30:26;;;;;;;22.33;3.60;;;13.00;99.90;;;;;;5048065;28;20207;-32
2023/03/24 07:33:11;;;;;;;20.30;3.40;;;13.00;99.90;;;;;;5062069;28;20199;-32
2023/03/24 07:35:39;;;;;;;12.50;2.73;;;13.10;99.90;;;;;;5063690;28;20201;-32
2023/03/24 07:38:07;;;;;;;15.03;2.93;;;13.20;99.90;;;;;;5048382;28;20660;-32
2023/03/24 07:40:35;;;;;;;11.90;2.67;;;13.20;99.90;;;;;;5048040;28;20307;-32
2023/03/24 07:43:04;;;;;;;13.80;3.00;;;13.20;99.90;;;;;;5046219;28;20204;-32
2023/03/24 07:45:38;;;;;;;33.27;5.20;;;13.30;99.90;;;;;;5048085;28;20208;-32
2023/03/24 07:48:06;;;;;;;23.57;3.67;;;13.20;99.90;;;;;;5063140;28;20215;-32
2023/03/24 07:50:35;;;;;;;24.33;4.00;;;13.20;99.90;;;;;;5062553;28;20208;-32
2023/03/24 07:53:03;;;;;;;11.13;2.57;;;13.20;99.90;;;;;;5047940;28;20641;-32
2023/03/24 07:55:32;;;;;;;11.63;2.47;;;13.30;99.90;;;;;;5047809;28;20441;-32
2023/03/24 07:58:03;;;;;;;16.53;3.10;;;13.30;99.90;;;;;;5046127;28;20200;-32
2023/03/24 08:00:31;;;;;;;14.90;2.43;;;13.40;99.90;;;;;;5062591;28;20663;-32
2023/03/24 08:03:02;;;;;;;11.97;2.50;;;13.40;99.90;;;;;;5047331;28;20223;-32
2023/03/24 08:05:29;;;;;;;13.57;2.60;;;13.50;99.90;;;;;;5062670;28;20849;-33
2023/03/24 08:07:57;;;;;;;9.17;2.37;;;13.60;99.90;;;;;;5047452;28;20629;-33
2023/03/24 08:10:30;;;;;;;12.37;2.73;;;13.60;99.90;;;;;;5047843;28;20189;-33
2023/03/24 08:13:01;;;;;;;11.93;2.03;;;13.60;99.90;;;;;;5062506;28;20259;-32
2023/03/24 08:15:34;;;;;;;9.10;2.17;;;13.60;99.90;;;;;;5062493;28;20219;-32
2023/03/24 08:18:01;;;;;;;11.80;2.43;;;13.60;99.90;;;;;;5047506;28;20207;-33
2023/03/24 08:20:30;;;;;;;22.40;3.90;;;13.60;99.90;;;;;;5047317;28;20584;-33
2023/03/24 08:23:03;;;;;;;15.13;2.90;;;13.60;99.90;;;;;;5047069;28;20261;-33
2023/03/24 08:25:35;;;;;;;10.13;2.40;;;13.60;99.90;;;;;;5047259;28;20250;-32
2023/03/24 08:28:03;;;;;;;15.70;2.40;;;13.60;99.90;;;;;;5062300;28;20339;-33
2023/03/24 08:30:33;;;;;;;23.37;4.03;;;13.60;99.90;;;;;;5045786;28;20682;-32
2023/03/24 08:33:04;;;;;;;17.87;3.63;;;13.60;99.90;;;;;;5047451;28;20252;-32
2023/03/24 08:35:37;;;;;;;13.00;2.30;;;13.70;99.90;;;;;;5045635;28;20188;-33
2023/03/24 08:38:08;;;;;;;10.20;2.10;;;13.70;99.90;;;;;;5047269;28;20204;-32
2023/03/24 08:40:39;;;;;;;15.00;2.27;;;13.70;99.90;;;;;;5045311;28;20211;-32
2023/03/24 08:43:08;;;;;;;14.20;2.27;;;13.80;99.90;;;;;;5046304;28;20635;-33
2023/03/24 08:45:38;;;;;;;20.70;3.20;;;13.80;99.90;;;;;;5046839;28;20204;-32
2023/03/24 08:48:07;;;;;;;13.63;2.50;;;13.90;99.90;;;;;;5045462;28;20204;-32
2023/03/24 08:50:38;;;;;;;28.77;3.83;;;13.90;99.90;;;;;;5045418;28;20674;-32
2023/03/24 08:53:11;;;;;;;13.20;2.50;;;13.90;99.90;;;;;;5061247;28;20235;-32
2023/03/24 08:55:40;;;;;;;10.63;2.40;;;13.90;99.90;;;;;;5045176;28;20208;-32
2023/03/24 08:58:14;;;;;;;22.53;3.33;;;14.00;99.90;;;;;;5046450;28;20779;-33
2023/03/24 09:00:46;;;;;;;15.33;2.60;;;14.00;99.90;;;;;;5061596;28;20273;-32
2023/03/24 09:03:21;;;;;;;17.97;2.80;;;14.00;99.90;;;;;;5046733;28;20640;-32
2023/03/24 09:05:57;;;;;;;13.67;2.30;;;14.10;99.90;;;;;;5046562;28;20265;-32
2023/03/24 09:08:25;;;;;;;13.17;2.40;;;14.10;99.90;;;;;;5046833;28;20295;-33
2023/03/24 09:10:52;;;;;;;8.30;1.83;;;14.20;99.90;;;;;;5047043;28;20248;-33
2023/03/24 09:13:24;;;;;;;12.17;2.43;;;14.10;99.90;;;;;;5046730;28;20678;-33
2023/03/24 09:15:56;;;;;;;11.67;2.40;;;14.20;99.90;;;;;;5061476;28;20800;-33
2023/03/24 09:18:24;;;;;;;9.57;2.83;;;14.30;99.90;;;;;;5061782;28;20725;-32
2023/03/24 09:20:51;;;;;;;10.57;2.17;;;14.30;99.90;;;;;;5046172;28;20369;-32
2023/03/24 09:23:20;;;;;;;8.50;2.10;;;14.30;99.90;;;;;;5046623;28;20249;-33
2023/03/24 09:25:53;;;;;;;11.80;2.50;;;14.40;99.90;;;;;;5046430;28;20293;-32
2023/03/24 09:28:21;;;;;;;16.30;2.37;;;14.40;99.90;;;;;;5046507;28;20227;-32
2023/03/24 09:30:49;;;;;;;9.63;2.33;;;14.40;99.90;;;;;;5044870;28;20276;-32
2023/03/24 09:33:22;;;;;;;8.57;1.80;;;14.40;99.90;;;;;;5045657;28;20203;-32
2023/03/24 09:36:00;;;;;;;9.00;1.73;;;14.50;99.90;;;;;;5045866;28;20349;-33
2023/03/24 09:38:30;;;;;;;14.70;3.10;;;14.50;99.90;;;;;;5046009;28;20199;-32
2023/03/24 09:41:03;;;;;;;17.43;3.03;;;14.50;99.90;;;;;;5060469;28;20211;-32
2023/03/24 09:43:40;;;;;;;12.80;2.53;;;14.50;99.90;;;;;;5044357;28;20204;-32
2023/03/24 09:46:35;;;;;;;8.87;1.80;;;14.50;99.90;;;;;;5044421;28;20203;-32
2023/03/24 09:49:10;;;;;;;12.23;3.03;;;14.50;99.90;;;;;;5045550;28;20742;-32
2023/03/24 09:51:42;;;;;;;15.63;2.70;;;14.50;99.90;;;;;;5060619;28;20297;-32
2023/03/24 09:54:34;;;;;;;7.83;1.87;;;14.60;99.90;;;;;;5046087;28;20230;-33
2023/03/24 09:57:02;;;;;;;9.73;1.97;;;14.60;99.90;;;;;;5050328;28;20611;-32
2023/03/24 09:59:42;;;;;;;10.00;2.20;;;14.70;99.90;;;;;;5064779;28;20196;-32
2023/03/24 10:02:13;;;;;;;8.37;2.00;;;14.70;99.90;;;;;;5050365;28;20667;-32
2023/03/24 10:04:43;;;;;;;7.93;1.80;;;14.70;99.90;;;;;;5048444;28;20254;-32
2023/03/24 10:07:19;;;;;;;10.43;2.07;;;14.80;99.90;;;;;;5049923;28;20588;-32
2023/03/24 10:10:00;;;;;;;11.00;2.13;;;14.80;99.90;;;;;;5049697;28;20200;-31
2023/03/24 10:12:38;;;;;;;22.43;3.30;;;14.80;99.90;;;;;;5049623;28;20235;-32
2023/03/24 10:15:28;;;;;;;17.23;2.60;;;14.80;99.90;;;;;;5049335;28;20227;-34
2023/03/24 10:18:25;;;;;;;16.30;2.70;;;14.80;99.90;;;;;;5049371;28;20815;-34
2023/03/24 10:21:26;;;;;;;10.30;2.37;;;14.80;99.90;;;;;;5049399;28;20294;-34
2023/03/24 10:24:05;;;;;;;11.37;2.10;;;14.80;99.90;;;;;;5039064;28;20299;-32
2023/03/24 10:27:22;;;;;;;23.70;4.23;;;14.90;99.90;;;;;;5063450;28;20282;-32
2023/03/24 10:29:59;;;;;;;16.60;2.80;;;14.90;99.90;;;;;;5012430;28;20270;-33
2023/03/24 10:32:31;;;;;;;26.37;3.67;;;15.00;99.90;;;;;;5049315;28;20226;-32
2023/03/24 10:35:08;;;;;;;19.83;3.00;;;15.00;99.90;;;;;;5063506;28;20327;-32
2023/03/24 10:37:43;;;;;;;14.53;3.27;;;15.00;99.90;;;;;;5048691;28;20215;-32
2023/03/24 10:40:22;;;;;;;27.03;3.93;;;15.10;99.90;;;;;;5048436;28;20296;-32
2023/03/24 10:42:51;;;;;;;12.03;2.60;;;15.10;99.90;;;;;;5048756;28;20456;-32
2023/03/24 10:45:43;;;;;;;10.30;2.87;;;15.20;99.90;;;;;;5061378;28;20224;-32
2023/03/24 10:48:13;;;;;;;9.33;2.20;;;15.30;99.90;;;;;;5063912;28;20286;-32
2023/03/24 10:50:47;;;;;;;8.37;2.37;;;15.30;99.90;;;;;;5048830;28;20224;-32
2023/03/24 10:53:19;;;;;;;14.43;2.47;;;15.30;99.90;;;;;;5048947;28;20231;-32
2023/03/24 10:55:47;;;;;;;14.73;2.60;;;15.30;99.90;;;;;;5063771;28;20204;-32
2023/03/24 10:58:24;;;;;;;13.97;2.53;;;15.30;99.90;;;;;;5048383;28;20232;-32
2023/03/24 11:00:56;;;;;;;9.27;2.70;;;15.40;99.90;;;;;;5048659;28;20572;-32
2023/03/24 11:03:30;;;;;;;9.80;2.10;;;15.40;99.90;;;;;;5049072;28;20196;-32
2023/03/24 11:06:00;;;;;;;11.17;2.27;;;15.30;99.90;;;;;;5048130;28;20196;-34
2023/03/24 11:08:34;;;;;;;9.60;1.87;;;15.30;99.90;;;;;;5063775;28;20654;-32
2023/03/24 11:11:32;;;;;;;12.33;2.37;;;15.30;99.90;;;;;;5049392;28;20219;-32
2023/03/24 11:14:06;;;;;;;9.90;2.20;;;15.40;99.90;;;;;;5047456;28;20726;-32
2023/03/24 11:16:42;;;;;;;15.53;2.93;;;15.50;99.90;;;;;;5048755;28;20270;-33
2023/03/24 11:19:18;;;;;;;18.57;2.70;;;15.50;99.90;;;;;;5048785;28;20678;-33
2023/03/24 11:21:56;;;;;;;14.37;2.90;;;15.60;99.90;;;;;;5048384;28;20208;-34
2023/03/24 11:24:29;;;;;;;15.77;2.53;;;15.60;99.90;;;;;;5048764;28;20444;-34
2023/03/24 11:27:00;;;;;;;8.97;2.00;;;15.60;99.90;;;;;;5046899;28;20204;-34
2023/03/24 11:29:41;;;;;;;11.27;2.00;;;15.70;99.90;;;;;;5046819;28;20622;-34
2023/03/24 11:32:44;;;;;;;14.27;2.10;;;15.60;99.90;;;;;;5063320;28;20273;-34
2023/03/24 11:35:17;;;;;;;18.80;2.50;;;15.60;99.90;;;;;;5038223;28;20254;-34
2023/03/24 11:37:45;;;;;;;11.13;1.87;;;15.60;99.90;;;;;;5048147;28;20223;-34
2023/03/24 11:40:15;;;;;;;11.63;2.10;;;15.70;99.90;;;;;;5063525;28;20287;-34
2023/03/24 11:42:50;;;;;;;13.20;2.90;;;15.70;99.90;;;;;;5047960;28;20252;-34
2023/03/24 11:45:43;;;;;;;13.07;2.60;;;15.70;99.90;;;;;;5047649;28;20596;-34
2023/03/24 11:48:28;;;;;;;12.47;2.03;;;15.80;99.90;;;;;;5041399;28;20200;-34
2023/03/24 11:50:57;;;;;;;8.30;2.00;;;15.90;99.90;;;;;;5062614;28;20204;-34
2023/03/24 11:53:33;;;;;;;12.20;2.30;;;16.00;99.90;;;;;;5047138;28;20256;-34
2023/03/24 11:56:03;;;;;;;8.57;2.33;;;16.00;99.90;;;;;;5047298;28;20208;-32
2023/03/24 11:58:46;;;;;;;12.90;2.80;;;16.00;99.90;;;;;;5062491;28;20224;-33
2023/03/24 12:01:20;;;;;;;7.80;2.60;;;16.10;99.90;;;;;;5047224;28;20208;-33
2023/03/24 12:03:58;;;;;;;9.00;2.47;;;16.00;99.90;;;;;;5047268;28;21054;-34
2023/03/24 12:06:32;;;;;;;21.63;3.60;;;16.10;99.90;;;;;;5062110;28;20698;-34
2023/03/24 12:09:26;;;;;;;6.90;2.00;;;16.10;99.90;;;;;;5062431;28;20290;-34
2023/03/24 12:12:12;;;;;;;9.68;2.10;;;16.10;99.90;;;;;;5035990;28;20557;-34
2023/03/24 12:14:44;;;;;;;9.67;2.53;;;16.20;99.90;;;;;;5046962;28;20203;-34
2023/03/24 12:17:13;;;;;;;6.37;1.80;;;16.20;99.90;;;;;;5045901;28;20220;-34
2023/03/24 12:20:18;;;;;;;6.70;2.23;;;16.20;99.90;;;;;;5046919;28;20321;-34
2023/03/24 12:23:06;;;;;;;8.57;1.60;;;16.30;99.90;;;;;;5046558;28;20231;-34
2023/03/24 12:26:05;;;;;;;7.68;1.77;;;16.30;99.90;;;;;;5047597;28;20197;-34
2023/03/24 12:29:01;;;;;;;9.57;1.73;;;16.20;99.90;;;;;;5047302;28;20650;-34
2023/03/24 12:31:42;;;;;;;5.80;1.73;;;16.20;99.90;;;;;;5062402;28;20294;-32
2023/03/24 12:34:37;;;;;;;8.10;1.80;;;16.20;99.90;;;;;;5062502;28;20206;-33
2023/03/24 12:37:10;;;;;;;8.73;2.17;;;16.30;99.90;;;;;;5061998;28;20421;-33
2023/03/24 12:39:54;;;;;;;12.40;1.93;;;16.30;99.90;;;;;;5061934;28;20860;-33
2023/03/24 12:42:24;;;;;;;5.63;1.73;;;16.40;99.90;;;;;;5046739;28;20196;-33
2023/03/24 12:45:00;;;;;;;6.75;1.60;;;16.40;99.90;;;;;;5061937;28;20677;-33
2023/03/24 12:48:11;;;;;;;7.88;2.15;;;16.50;99.90;;;;;;5046643;28;20208;-33
2023/03/24 12:50:56;;;;;;;13.10;2.10;;;16.40;99.90;;;;;;5010219;28;20211;-33
2023/03/24 12:53:29;;;;;;;5.83;1.57;;;16.50;99.90;;;;;;5046456;28;20564;-32
2023/03/24 12:56:15;;;;;;;9.20;2.03;;;16.60;99.90;;;;;;5046009;28;20679;-33
2023/03/24 12:59:01;;;;;;;7.80;2.00;;;16.60;99.90;;;;;;5046296;28;20326;-33
2023/03/24 13:01:40;;;;;;;7.17;1.63;;;16.70;99.90;;;;;;5044749;28;20671;-33
2023/03/24 13:04:14;;;;;;;11.17;2.00;;;16.80;99.90;;;;;;5044766;28;20235;-33
2023/03/24 13:06:55;;;;;;;15.67;2.90;;;16.80;99.90;;;;;;5044961;28;20254;-33
2023/03/24 13:09:40;;;;;;;20.63;3.90;;;16.80;99.90;;;;;;5046116;28;20299;-33
2023/03/24 13:12:45;;;;;;;15.00;2.67;;;16.90;99.90;;;;;;5060836;28;20655;-31
2023/03/24 13:15:37;;;;;;;12.63;2.10;;;16.90;99.90;;;;;;5044102;28;20240;-32
2023/03/24 13:18:13;;;;;;;13.13;2.20;;;16.80;99.90;;;;;;5045931;28;20218;-33
2023/03/24 13:20:50;;;;;;;9.07;1.70;;;16.60;99.90;;;;;;5045764;28;20747;-34
2023/03/24 13:23:17;;;;;;;9.33;1.60;;;16.50;99.90;;;;;;5045855;28;20211;-34
2023/03/24 13:26:09;;;;;;;5.50;1.42;;;16.50;99.90;;;;;;5045678;28;20740;-34